Latest Weather Observations for Garden Island

IDW60801

Issued at 4:53 am WST Tuesday 7 July 2020 (issued every 10 minutes, with the page automatically refreshed every 10 minutes)

About weather observations | Map of weather stations | Latest weather observations for WA | Other Formats
Station Details ID: 009256 Name: GARDEN ISLAND HSF Lat: -32.24 Lon: 115.68 Height: 6.0 m
Data from the previous 72 hours. | See also: Recent months at Garden Island
Date/Time
WST
Temp
°C
App
Temp
°C
Dew
Point
°C
Rel
Hum
%
Delta-T
°C
Wind Press
QNH
hPa
Press
MSL
hPa
Rain since
9am
mm
Dir  Spd
km/h
Gust
km/h
Spd
kts
Gust
kts
07/04:44am 15.9 10.6 10.0 68 3.1 WNW 28 46 15 25 1020.6 1020.6 -
07/04:30am 16.3 11.1 9.0 62 3.8 WNW 26 35 14 19 1020.6 1020.6 -
07/04:00am 15.6 9.5 9.7 68 3.1 W 32 41 17 22 1020.7 1020.7 -
07/03:30am 16.9 11.4 9.3 61 3.9 W 28 35 15 19 1020.5 1020.5 -
07/03:00am 16.7 10.4 9.1 61 3.9 W 32 41 17 22 1020.4 1020.4 -
07/02:30am 16.9 10.8 9.6 62 3.8 W 32 44 17 24 1020.4 1020.4 -
07/02:00am 17.0 10.6 8.7 58 4.3 W 32 41 17 22 1020.3 1020.3 -
07/01:30am 16.7 11.3 9.4 62 3.8 W 28 43 15 23 1020.1 1020.1 -
07/01:00am 16.8 10.8 10.2 65 3.5 W 32 41 17 22 1020.0 1020.0 -
07/12:30am 16.8 9.5 7.2 53 4.8 W 35 43 19 23 1020.2 1020.2 -
07/12:00am 17.0 10.4 9.9 63 3.7 WSW 35 48 19 26 1020.2 1020.2 -
 
Date/Time
WST
Temp
°C
App
Temp
°C
Dew
Point
°C
Rel
Hum
%
Delta-T
°C
Wind Press
QNH
hPa
Press
MSL
hPa
Rain since
9am
mm
Dir  Spd
km/h
Gust
km/h
Spd
kts
Gust
kts
06/11:47pm 16.8 10.6 10.0 64 3.6 W 33 52 18 28 1020.2 1020.2 -
06/11:30pm 17.0 10.9 10.6 66 3.4 W 33 46 18 25 1020.4 1020.4 -
06/11:00pm 17.2 10.5 9.6 61 4.0 W 35 46 19 25 1020.2 1020.2 -
06/10:30pm 17.2 11.1 10.6 65 3.5 W 33 44 18 24 1020.1 1020.1 -
06/10:00pm 17.0 10.0 9.9 63 3.7 W 37 46 20 25 1020.0 1020.0 -
06/09:30pm 17.1 10.5 11.4 69 3.1 W 37 46 20 25 1019.9 1019.9 -
06/09:00pm 17.2 10.1 9.6 61 4.0 W 37 46 20 25 1019.9 1019.9 -
06/08:44pm 15.9 9.4 10.2 69 3.0 W 35 56 19 30 1020.1 1020.1 -
06/08:30pm 17.4 10.1 8.8 57 4.4 W 37 46 20 25 1019.9 1019.9 -
06/08:00pm 17.0 9.4 9.2 60 4.0 W 39 54 21 29 1019.7 1019.7 -
06/07:30pm 17.3 10.6 9.5 60 4.1 WNW 35 48 19 26 1019.5 1019.5 -
06/07:00pm 16.9 8.6 9.3 61 3.9 W 43 54 23 29 1019.3 1019.3 -
06/06:30pm 17.1 9.0 10.9 67 3.3 W 44 57 24 31 1018.9 1018.9 -
06/06:00pm 17.3 10.4 12.8 75 2.5 W 41 52 22 28 1018.3 1018.3 -
06/05:30pm 17.2 9.8 12.3 73 2.7 W 43 54 23 29 1018.0 1018.0 -
06/05:04pm 16.4 9.1 12.8 79 2.0 WNW 43 61 23 33 1017.7 1017.7 -
06/05:00pm 16.8 10.2 12.5 76 2.4 WNW 39 54 21 29 1017.6 1017.6 -
06/04:34pm 16.0 10.3 13.1 83 1.6 WNW 35 54 19 29 1017.4 1017.4 -
06/04:30pm 16.1 10.2 13.6 85 1.4 WNW 37 52 20 28 1017.4 1017.4 -
06/04:00pm 16.1 9.5 13.8 86 1.3 WNW 41 54 22 29 1017.2 1017.2 -
06/03:37pm 17.3 11.0 13.6 79 2.1 WNW 39 57 21 31 1017.0 1017.0 -
06/03:30pm 17.1 10.3 13.0 77 2.3 WNW 41 52 22 28 1016.9 1016.9 -
06/03:10pm 17.0 10.2 12.1 73 2.7 NW 39 61 21 33 1016.7 1016.7 -
06/03:00pm 17.1 10.3 12.0 72 2.8 WNW 39 52 21 28 1016.7 1016.7 -
06/02:30pm 17.4 11.1 12.3 72 2.8 WNW 37 52 20 28 1016.4 1016.4 -
06/02:00pm 16.9 9.8 12.2 74 2.6 WNW 41 56 22 30 1016.2 1016.2 -
06/01:30pm 16.2 9.0 13.1 82 1.7 NW 43 56 23 30 1016.3 1016.3 -
06/01:17pm 16.3 9.5 13.2 82 1.7 NW 41 59 22 32 1016.3 1016.3 -
06/01:00pm 17.9 10.1 13.0 73 2.7 NW 46 59 25 32 1016.3 1016.3 -
06/12:54pm 17.9 11.1 13.2 74 2.6 NW 41 59 22 32 1016.4 1016.4 -
06/12:30pm 17.4 11.1 12.3 72 2.8 NW 37 54 20 29 1016.5 1016.5 -
06/12:13pm 17.1 10.3 12.0 72 2.8 NW 39 57 21 31 1016.7 1016.7 -
06/12:00pm 16.2 8.7 12.0 76 2.3 NW 43 57 23 31 1016.7 1016.7 -
06/11:30am 17.6 10.4 10.5 63 3.8 NW 39 56 21 30 1016.7 1016.7 -
06/11:00am 17.7 10.9 11.9 69 3.2 NW 39 57 21 31 1016.8 1016.8 -
06/10:58am 17.5 10.7 12.0 70 3.0 NW 39 57 21 31 1016.8 1016.8 -
06/10:30am 17.6 9.2 11.2 66 3.5 NW 46 59 25 32 1016.7 1016.7 -
06/10:00am 17.8 10.8 11.1 65 3.6 NW 39 50 21 27 1016.6 1016.6 -
06/09:30am 17.8 10.7 9.7 59 4.3 NW 37 48 20 26 1016.6 1016.6 -
06/09:00am 17.6 9.9 10.2 62 3.9 NW 41 54 22 29 1016.2 1016.2 -
06/08:30am 17.3 9.3 10.4 64 3.7 NW 43 56 23 30 1015.8 1015.8 -
06/08:00am 17.3 8.7 10.2 63 3.8 NW 46 57 25 31 1015.5 1015.5 -
06/07:44am 16.3 11.5 11.5 73 2.6 NW 28 48 15 26 1015.3 1015.3 -
06/07:30am 16.2 8.1 12.0 76 2.3 NW 46 61 25 33 1015.4 1015.4 -
06/07:25am 17.2 10.4 11.9 71 2.9 NW 39 57 21 31 1015.1 1015.1 -
06/07:00am 17.2 10.4 12.1 72 2.8 NW 39 50 21 27 1014.8 1014.8 -
06/06:30am 17.0 10.8 11.3 69 3.1 NW 35 44 19 24 1014.4 1014.4 -
06/06:00am 16.2 11.3 12.6 79 2.0 NW 30 37 16 20 1014.4 1014.4 -
06/05:30am 16.9 11.4 12.4 75 2.5 NW 33 44 18 24 1014.1 1014.1 -
06/05:00am 16.7 12.1 11.2 70 3.0 NW 26 33 14 18 1014.1 1014.1 -
06/04:39am 15.3 10.8 12.6 84 1.5 WNW 28 46 15 25 1014.3 1014.3 -
06/04:30am 16.0 10.6 12.7 81 1.8 WNW 33 46 18 25 1014.3 1014.3 -
06/04:27am 16.3 11.1 12.8 80 1.9 WNW 32 43 17 23 1014.3 1014.3 -
06/04:00am 16.4 12.3 12.8 79 2.0 NW 26 39 14 21 1014.2 1014.2 -
06/03:30am 16.1 11.9 12.5 79 2.0 NW 26 32 14 17 1014.2 1014.2 -
06/03:00am 15.2 10.7 13.9 92 0.7 NW 30 41 16 22 1014.4 1014.4 -
06/02:30am 16.1 10.1 14.3 89 1.0 WNW 39 52 21 28 1014.3 1014.3 -
06/02:18am 16.7 11.7 14.0 84 1.5 NW 33 48 18 26 1014.2 1014.2 -
06/02:00am 17.3 11.1 12.6 74 2.6 NNW 37 46 20 25 1014.1 1014.1 -
06/01:30am 16.4 11.5 12.4 77 2.2 NNW 30 39 16 21 1014.1 1014.1 -
06/01:00am 16.0 10.6 12.7 81 1.8 NNW 33 44 18 24 1014.6 1014.6 -
06/12:36am 16.4 14.0 13.7 84 1.5 NNW 19 43 10 23 1014.9 1014.9 -
06/12:30am 15.2 13.5 12.5 84 1.5 N 13 17 7 9 1014.6 1014.6 -
06/12:00am 15.5 13.1 12.8 84 1.5 N 17 20 9 11 1014.8 1014.8 -
 
Date/Time
WST
Temp
°C
App
Temp
°C
Dew
Point
°C
Rel
Hum
%
Delta-T
°C
Wind Press
QNH
hPa
Press
MSL
hPa
Rain since
9am
mm
Dir  Spd
km/h
Gust
km/h
Spd
kts
Gust
kts
05/11:30pm 17.2 14.8 12.5 74 2.6 NNW 17 30 9 16 1015.4 1015.4 -
05/11:00pm 17.6 14.6 11.9 69 3.1 NW 19 26 10 14 1015.4 1015.4 -
05/10:30pm 17.2 14.8 11.5 69 3.1 WNW 15 20 8 11 1015.3 1015.3 -
05/10:00pm 17.0 12.3 12.1 73 2.7 W 28 37 15 20 1015.7 1015.7 -
05/09:30pm 17.1 12.5 13.4 79 2.1 WSW 30 39 16 21 1015.4 1015.4 -
05/09:00pm 17.1 12.2 14.4 84 1.5 WSW 33 41 18 22 1015.3 1015.3 -
05/08:30pm 17.7 13.2 15.5 87 1.3 W 33 41 18 22 1015.2 1015.2 -
05/08:13pm 17.6 16.4 17.0 96 0.4 NW 19 43 10 23 1015.1 1015.1 -
05/08:00pm 16.0 14.4 15.0 94 0.6 NNW 17 20 9 11 1015.4 1015.4 -
05/07:30pm 16.4 12.8 13.1 81 1.8 N 24 33 13 18 1014.5 1014.5 -
05/07:00pm 17.8 15.3 10.9 64 3.7 NNE 15 19 8 10 1013.3 1013.3 -
05/06:30pm 17.7 16.4 13.8 78 2.2 N 13 17 7 9 1014.1 1014.1 -
05/06:00pm 17.4 16.7 14.3 82 1.8 NE 11 13 6 7 1013.9 1013.9 -
05/05:30pm 17.9 17.5 14.2 79 2.1 N 9 11 5 6 1014.2 1014.2 -
05/05:00pm 18.4 16.9 14.1 76 2.5 NE 15 19 8 10 1013.7 1013.7 -
05/04:30pm 18.8 18.1 14.3 75 2.6 NE 11 15 6 8 1014.1 1014.1 -
05/04:00pm 19.3 18.2 14.3 73 2.9 WNW 13 19 7 10 1014.9 1014.9 -
05/03:30pm 20.0 17.8 13.2 65 3.9 NNW 17 22 9 12 1015.5 1015.5 -
05/03:00pm 19.9 18.3 13.8 68 3.5 NNW 15 20 8 11 1015.4 1015.4 -
05/02:30pm 21.4 18.1 8.0 42 7.0 N 15 24 8 13 1014.9 1014.9 -
05/02:00pm 20.9 16.9 8.2 44 6.6 N 19 26 10 14 1015.1 1015.1 -
05/01:30pm 20.6 15.9 7.6 43 6.7 N 22 28 12 15 1015.1 1015.1 -
05/01:00pm 21.9 18.0 9.4 45 6.7 N 20 28 11 15 1015.3 1015.3 -
05/12:30pm 20.5 16.3 8.2 45 6.4 NNE 20 32 11 17 1015.7 1015.7 -
05/12:00pm 20.5 16.6 8.5 46 6.3 N 19 26 10 14 1016.4 1016.4 -
05/11:30am 20.0 15.7 9.3 50 5.7 NNE 22 28 12 15 1017.1 1017.1 -
05/11:00am 18.5 14.1 7.6 49 5.5 NNE 20 28 11 15 1017.8 1017.8 -
05/10:30am 18.2 12.9 7.0 48 5.6 NNE 24 30 13 16 1018.0 1018.0 -
05/10:00am 17.7 12.9 7.2 50 5.2 NNE 22 32 12 17 1018.2 1018.2 -
05/09:30am 17.3 12.0 6.8 50 5.2 NNE 24 30 13 16 1018.5 1018.5 -
05/09:00am 17.2 12.9 7.0 51 5.1 N 19 26 10 14 1018.7 1018.7 -
05/08:30am 17.1 12.5 6.3 49 5.3 NNE 20 26 11 14 1018.6 1018.6 -
05/08:00am 17.0 12.4 6.5 50 5.2 NNE 20 26 11 14 1018.6 1018.6 -
05/07:30am 16.4 11.8 6.5 52 4.8 NNE 20 28 11 15 1018.9 1018.9 -
05/07:00am 16.6 11.6 6.4 51 5.0 NNE 22 30 12 16 1018.7 1018.7 -
05/06:30am 16.4 11.4 6.5 52 4.8 NNE 22 30 12 16 1018.6 1018.6 -
05/06:00am 16.4 12.4 6.8 53 4.7 NNE 17 22 9 12 1018.7 1018.7 -
05/05:30am 16.2 11.9 6.9 54 4.6 NNE 19 26 10 14 1018.7 1018.7 -
05/05:00am 16.5 11.9 6.6 52 4.8 NNE 20 28 11 15 1018.7 1018.7 -
05/04:30am 16.7 12.4 7.1 53 4.8 NNE 19 24 10 13 1019.2 1019.2 -
05/04:00am 16.9 12.5 6.4 50 5.1 NNE 19 26 10 14 1019.5 1019.5 -
05/03:30am 16.7 11.8 6.8 52 4.9 NNE 22 26 12 14 1019.6 1019.6 -
05/03:00am 16.5 11.9 6.3 51 5.0 NNE 20 26 11 14 1019.7 1019.7 -
05/02:30am 16.5 12.1 7.2 54 4.6 NNE 20 26 11 14 1020.0 1020.0 -
05/02:00am 16.7 12.9 7.4 54 4.6 NNE 17 22 9 12 1020.3 1020.3 -
05/01:30am 17.0 12.9 7.9 55 4.6 NNE 19 24 10 13 1020.1 1020.1 -
05/01:00am 16.6 13.2 9.3 62 3.8 NNE 17 22 9 12 1020.4 1020.4 -
05/12:30am 16.3 12.9 9.3 63 3.6 NNE 17 22 9 12 1020.8 1020.8 -
05/12:00am 16.1 13.2 9.5 65 3.4 NNE 15 20 8 11 1021.0 1021.0 -
 
Date/Time
WST
Temp
°C
App
Temp
°C
Dew
Point
°C
Rel
Hum
%
Delta-T
°C
Wind Press
QNH
hPa
Press
MSL
hPa
Rain since
9am
mm
Dir  Spd
km/h
Gust
km/h
Spd
kts
Gust
kts
04/11:30pm 15.6 12.9 9.1 65 3.3 NNE 13 17 7 9 1021.4 1021.4 -
04/11:00pm 15.5 13.0 9.8 69 3.0 NE 13 19 7 10 1021.5 1021.5 -
04/10:30pm 15.4 13.1 10.6 73 2.5 NE 13 17 7 9 1021.8 1021.8 -
04/10:00pm 14.4 12.1 10.6 78 2.0 NE 13 17 7 9 1021.9 1021.9 -
04/09:30pm 14.3 12.5 10.9 80 1.8 ENE 11 13 6 7 1022.2 1022.2 -
04/09:00pm 14.0 12.1 10.6 80 1.8 ENE 11 13 6 7 1022.6 1022.6 -
04/08:30pm 14.4 13.0 10.8 79 1.9 NE 9 13 5 7 1022.8 1022.8 -
04/08:00pm 14.9 13.3 10.3 74 2.4 NE 9 11 5 6 1023.0 1023.0 -
04/07:30pm 16.1 14.7 10.8 71 2.8 NE 9 13 5 7 1022.6 1022.6 -
04/07:00pm 16.5 15.1 10.8 69 3.0 NE 9 13 5 7 1022.5 1022.5 -
04/06:30pm 16.7 14.7 11.4 71 2.9 NE 13 15 7 8 1022.3 1022.3 -
04/06:00pm 16.3 14.7 11.5 73 2.6 NE 11 15 6 8 1022.3 1022.3 -
04/05:30pm 16.7 15.2 10.5 67 3.3 NE 9 13 5 7 1022.1 1022.1 -
04/05:00pm 19.4 18.5 10.7 57 4.7 NNE 6 7 3 4 1022.1 1022.1 -
04/04:30pm 20.6 19.4 10.4 52 5.5 N 7 9 4 5 1022.0 1022.0 -
04/04:00pm 20.8 19.2 10.3 51 5.7 NNE 9 13 5 7 1021.9 1021.9 -
04/03:30pm 21.1 18.4 9.0 46 6.4 N 13 17 7 9 1022.0 1022.0 -
04/03:00pm 21.3 18.1 8.6 44 6.7 N 15 19 8 10 1022.1 1022.1 -
04/02:30pm 21.0 17.8 8.3 44 6.6 N 15 20 8 11 1022.3 1022.3 -
04/02:00pm 21.2 17.5 7.8 42 6.9 N 17 20 9 11 1022.4 1022.4 -
04/01:30pm 20.7 17.3 7.7 43 6.7 N 15 20 8 11 1022.8 1022.8 -
04/01:00pm 20.3 17.4 9.8 51 5.6 NNE 15 22 8 12 1022.9 1022.9 -
04/12:30pm 20.2 16.4 9.2 49 5.8 NNE 19 28 10 15 1023.5 1023.5 -
04/12:00pm 19.6 15.3 8.0 47 5.9 NNE 20 30 11 16 1024.0 1024.0 -
04/11:30am 19.0 14.3 7.8 48 5.7 NNE 22 30 12 16 1024.5 1024.5 -
04/11:00am 17.8 12.5 6.7 48 5.5 NNE 24 32 13 17 1025.0 1025.0 -
04/10:30am 17.2 11.1 6.7 50 5.2 NNE 28 39 15 21 1025.2 1025.2 -
04/10:00am 17.4 11.2 6.3 48 5.4 NNE 28 39 15 21 1025.4 1025.4 -
04/09:30am 17.0 11.5 7.6 54 4.7 NNE 26 35 14 19 1025.5 1025.5 -
04/09:00am 16.0 10.6 6.4 53 4.7 NNE 24 33 13 18 1025.5 1025.5 -
04/08:30am 15.3 10.7 6.3 55 4.4 NNE 20 30 11 16 1025.4 1025.4 -
04/08:00am 14.3 9.9 6.6 60 3.7 NNE 19 26 10 14 1025.3 1025.3 -
04/07:30am 14.1 9.5 6.5 60 3.7 NNE 20 30 11 16 1025.1 1025.1 -
04/07:00am 13.7 10.1 6.6 62 3.4 NE 15 19 8 10 1025.2 1025.2 -
04/06:30am 13.9 9.9 6.5 61 3.6 NNE 17 24 9 13 1025.1 1025.1 -
04/06:00am 14.1 10.1 6.7 61 3.6 NNE 17 24 9 13 1024.9 1024.9 -
04/05:30am 14.2 10.2 6.8 61 3.6 NE 17 20 9 11 1025.0 1025.0 -
04/05:00am 14.4 10.4 6.5 59 3.8 NNE 17 20 9 11 1025.0 1025.0 -

Other formats

Comma delimited format used in spreadsheet applications
http://www.bom.gov.au/fwo/IDW60801/IDW60801.95607.axf

JavaScript Object Notation format (JSON) in row-major order
http://www.bom.gov.au/fwo/IDW60801/IDW60801.95607.json

Data quality

Most of these data are generated automatically and are frequently updated. Quality checks on data are not normally performed. It is possible for incorrect values to appear. Refer to information at About Latest Weather Observations and please check the disclaimer before using these data.